sensor_id;sensor_type;location;lat;lon;timestamp;P1;durP1;ratioP1;P2;durP2;ratioP2
74689;SDS011;63221;51.860;-2.188;2023-04-29T00:00:17;8.77;;;4.67;;
74689;SDS011;63221;51.860;-2.188;2023-04-29T00:02:43;6.72;;;4.30;;
74689;SDS011;63221;51.860;-2.188;2023-04-29T00:05:08;8.20;;;5.10;;
74689;SDS011;63221;51.860;-2.188;2023-04-29T00:07:34;8.47;;;5.17;;
74689;SDS011;63221;51.860;-2.188;2023-04-29T00:10:00;8.07;;;4.60;;
74689;SDS011;63221;51.860;-2.188;2023-04-29T00:12:26;8.18;;;5.28;;
74689;SDS011;63221;51.860;-2.188;2023-04-29T00:14:52;8.80;;;5.50;;
74689;SDS011;63221;51.860;-2.188;2023-04-29T00:17:18;10.27;;;5.47;;
74689;SDS011;63221;51.860;-2.188;2023-04-29T00:19:43;9.30;;;4.53;;
74689;SDS011;63221;51.860;-2.188;2023-04-29T00:22:09;8.27;;;4.95;;
74689;SDS011;63221;51.860;-2.188;2023-04-29T00:24:34;8.43;;;4.80;;
74689;SDS011;63221;51.860;-2.188;2023-04-29T00:27:00;9.13;;;3.90;;
74689;SDS011;63221;51.860;-2.188;2023-04-29T00:29:26;8.55;;;4.47;;
74689;SDS011;63221;51.860;-2.188;2023-04-29T00:31:52;8.10;;;4.53;;
74689;SDS011;63221;51.860;-2.188;2023-04-29T00:34:17;7.45;;;4.57;;
74689;SDS011;63221;51.860;-2.188;2023-04-29T00:36:43;8.17;;;5.23;;
74689;SDS011;63221;51.860;-2.188;2023-04-29T00:39:08;7.57;;;3.60;;
74689;SDS011;63221;51.860;-2.188;2023-04-29T00:41:34;9.73;;;5.23;;
74689;SDS011;63221;51.860;-2.188;2023-04-29T00:43:59;7.63;;;4.05;;
74689;SDS011;63221;51.860;-2.188;2023-04-29T00:46:25;6.53;;;3.80;;
74689;SDS011;63221;51.860;-2.188;2023-04-29T00:48:51;8.45;;;4.25;;
74689;SDS011;63221;51.860;-2.188;2023-04-29T00:51:17;7.60;;;5.10;;
74689;SDS011;63221;51.860;-2.188;2023-04-29T00:53:42;9.97;;;5.03;;
74689;SDS011;63221;51.860;-2.188;2023-04-29T00:56:08;7.80;;;4.53;;
74689;SDS011;63221;51.860;-2.188;2023-04-29T00:58:34;6.63;;;3.63;;
74689;SDS011;63221;51.860;-2.188;2023-04-29T01:01:00;8.30;;;3.95;;
74689;SDS011;63221;51.860;-2.188;2023-04-29T01:03:27;9.13;;;5.45;;
74689;SDS011;63221;51.860;-2.188;2023-04-29T01:05:55;8.93;;;5.07;;
74689;SDS011;63221;51.860;-2.188;2023-04-29T01:08:44;7.03;;;4.17;;
74689;SDS011;63221;51.860;-2.188;2023-04-29T01:11:17;11.52;;;4.93;;
74689;SDS011;63221;51.860;-2.188;2023-04-29T01:16:23;7.72;;;4.13;;
74689;SDS011;63221;51.860;-2.188;2023-04-29T01:18:53;6.35;;;4.10;;
74689;SDS011;63221;51.860;-2.188;2023-04-29T01:21:20;8.33;;;4.47;;
74689;SDS011;63221;51.860;-2.188;2023-04-29T01:23:46;7.78;;;4.25;;
74689;SDS011;63221;51.860;-2.188;2023-04-29T01:26:17;6.97;;;4.50;;
74689;SDS011;63221;51.860;-2.188;2023-04-29T01:31:17;8.55;;;4.15;;
74689;SDS011;63221;51.860;-2.188;2023-04-29T01:33:49;8.40;;;4.88;;
74689;SDS011;63221;51.860;-2.188;2023-04-29T01:39:20;5.93;;;4.57;;
74689;SDS011;63221;51.860;-2.188;2023-04-29T01:41:58;7.97;;;4.97;;
74689;SDS011;63221;51.860;-2.188;2023-04-29T01:44:29;7.78;;;4.05;;
74689;SDS011;63221;51.860;-2.188;2023-04-29T01:46:57;8.50;;;4.35;;
74689;SDS011;63221;51.860;-2.188;2023-04-29T01:49:26;8.82;;;4.38;;
74689;SDS011;63221;51.860;-2.188;2023-04-29T01:51:52;5.37;;;3.77;;
74689;SDS011;63221;51.860;-2.188;2023-04-29T01:54:18;7.90;;;5.00;;
74689;SDS011;63221;51.860;-2.188;2023-04-29T01:56:43;8.10;;;4.60;;
74689;SDS011;63221;51.860;-2.188;2023-04-29T01:59:09;10.43;;;4.97;;
74689;SDS011;63221;51.860;-2.188;2023-04-29T02:01:35;9.30;;;5.35;;
74689;SDS011;63221;51.860;-2.188;2023-04-29T02:04:01;8.20;;;4.50;;
74689;SDS011;63221;51.860;-2.188;2023-04-29T02:06:26;9.55;;;5.72;;
74689;SDS011;63221;51.860;-2.188;2023-04-29T02:08:52;11.07;;;6.57;;
74689;SDS011;63221;51.860;-2.188;2023-04-29T02:11:17;10.23;;;5.17;;
74689;SDS011;63221;51.860;-2.188;2023-04-29T02:13:43;7.37;;;4.63;;
74689;SDS011;63221;51.860;-2.188;2023-04-29T02:16:12;9.52;;;5.90;;
74689;SDS011;63221;51.860;-2.188;2023-04-29T02:18:38;8.73;;;5.27;;
74689;SDS011;63221;51.860;-2.188;2023-04-29T02:21:05;9.85;;;6.00;;
74689;SDS011;63221;51.860;-2.188;2023-04-29T02:23:30;12.75;;;6.35;;
74689;SDS011;63221;51.860;-2.188;2023-04-29T02:25:56;10.70;;;5.73;;
74689;SDS011;63221;51.860;-2.188;2023-04-29T02:28:21;11.33;;;6.07;;
74689;SDS011;63221;51.860;-2.188;2023-04-29T02:30:50;10.13;;;6.25;;
74689;SDS011;63221;51.860;-2.188;2023-04-29T02:33:15;13.07;;;6.30;;
74689;SDS011;63221;51.860;-2.188;2023-04-29T02:35:42;11.13;;;5.10;;
74689;SDS011;63221;51.860;-2.188;2023-04-29T02:38:07;8.70;;;4.55;;
74689;SDS011;63221;51.860;-2.188;2023-04-29T02:40:33;13.57;;;6.20;;
74689;SDS011;63221;51.860;-2.188;2023-04-29T02:42:58;10.53;;;5.93;;
74689;SDS011;63221;51.860;-2.188;2023-04-29T02:45:25;9.98;;;5.75;;
74689;SDS011;63221;51.860;-2.188;2023-04-29T02:47:50;9.67;;;5.17;;
74689;SDS011;63221;51.860;-2.188;2023-04-29T02:50:16;9.13;;;5.17;;
74689;SDS011;63221;51.860;-2.188;2023-04-29T02:52:41;10.38;;;5.93;;
74689;SDS011;63221;51.860;-2.188;2023-04-29T02:55:07;11.43;;;6.00;;
74689;SDS011;63221;51.860;-2.188;2023-04-29T02:57:33;12.65;;;6.07;;
74689;SDS011;63221;51.860;-2.188;2023-04-29T02:59:58;13.87;;;7.40;;
74689;SDS011;63221;51.860;-2.188;2023-04-29T03:02:24;13.37;;;7.40;;
74689;SDS011;63221;51.860;-2.188;2023-04-29T03:04:50;15.95;;;7.05;;
74689;SDS011;63221;51.860;-2.188;2023-04-29T03:07:16;15.30;;;8.03;;
74689;SDS011;63221;51.860;-2.188;2023-04-29T03:09:42;18.30;;;9.80;;
74689;SDS011;63221;51.860;-2.188;2023-04-29T03:12:07;17.87;;;9.57;;
74689;SDS011;63221;51.860;-2.188;2023-04-29T03:14:32;16.07;;;8.43;;
74689;SDS011;63221;51.860;-2.188;2023-04-29T03:16:58;16.13;;;9.57;;
74689;SDS011;63221;51.860;-2.188;2023-04-29T03:19:23;17.48;;;8.93;;
74689;SDS011;63221;51.860;-2.188;2023-04-29T03:21:49;19.33;;;10.07;;
74689;SDS011;63221;51.860;-2.188;2023-04-29T03:24:14;20.87;;;10.30;;
74689;SDS011;63221;51.860;-2.188;2023-04-29T03:26:40;19.77;;;9.93;;
74689;SDS011;63221;51.860;-2.188;2023-04-29T03:29:07;18.73;;;9.43;;
74689;SDS011;63221;51.860;-2.188;2023-04-29T03:31:32;19.10;;;9.73;;
74689;SDS011;63221;51.860;-2.188;2023-04-29T03:33:58;19.80;;;11.40;;
74689;SDS011;63221;51.860;-2.188;2023-04-29T03:36:24;19.27;;;10.83;;
74689;SDS011;63221;51.860;-2.188;2023-04-29T03:38:49;20.53;;;10.10;;
74689;SDS011;63221;51.860;-2.188;2023-04-29T03:41:14;20.52;;;11.15;;
74689;SDS011;63221;51.860;-2.188;2023-04-29T03:43:40;21.10;;;9.73;;
74689;SDS011;63221;51.860;-2.188;2023-04-29T03:46:08;22.20;;;11.23;;
74689;SDS011;63221;51.860;-2.188;2023-04-29T03:48:33;21.53;;;10.63;;
74689;SDS011;63221;51.860;-2.188;2023-04-29T03:50:59;20.50;;;11.32;;
74689;SDS011;63221;51.860;-2.188;2023-04-29T03:53:24;23.17;;;11.47;;
74689;SDS011;63221;51.860;-2.188;2023-04-29T03:55:50;20.00;;;11.30;;
74689;SDS011;63221;51.860;-2.188;2023-04-29T03:58:15;19.77;;;10.68;;
74689;SDS011;63221;51.860;-2.188;2023-04-29T04:00:41;24.90;;;12.90;;
74689;SDS011;63221;51.860;-2.188;2023-04-29T04:03:06;27.10;;;12.63;;
74689;SDS011;63221;51.860;-2.188;2023-04-29T04:05:32;21.63;;;11.98;;
74689;SDS011;63221;51.860;-2.188;2023-04-29T04:07:58;20.77;;;10.50;;
74689;SDS011;63221;51.860;-2.188;2023-04-29T04:10:24;23.38;;;11.35;;
74689;SDS011;63221;51.860;-2.188;2023-04-29T04:12:50;20.60;;;11.53;;
74689;SDS011;63221;51.860;-2.188;2023-04-29T04:15:15;21.63;;;12.02;;
74689;SDS011;63221;51.860;-2.188;2023-04-29T04:17:41;22.77;;;10.60;;
74689;SDS011;63221;51.860;-2.188;2023-04-29T04:20:07;24.93;;;12.33;;
74689;SDS011;63221;51.860;-2.188;2023-04-29T04:22:33;24.57;;;12.50;;
74689;SDS011;63221;51.860;-2.188;2023-04-29T04:24:58;22.90;;;12.53;;
74689;SDS011;63221;51.860;-2.188;2023-04-29T04:27:23;23.42;;;10.43;;
74689;SDS011;63221;51.860;-2.188;2023-04-29T04:29:52;22.63;;;11.10;;
74689;SDS011;63221;51.860;-2.188;2023-04-29T04:32:18;25.25;;;11.38;;
74689;SDS011;63221;51.860;-2.188;2023-04-29T04:34:45;20.00;;;10.80;;
74689;SDS011;63221;51.860;-2.188;2023-04-29T04:37:11;19.93;;;10.20;;
74689;SDS011;63221;51.860;-2.188;2023-04-29T04:39:37;19.40;;;10.47;;
74689;SDS011;63221;51.860;-2.188;2023-04-29T04:42:02;24.00;;;11.40;;
74689;SDS011;63221;51.860;-2.188;2023-04-29T04:44:28;22.97;;;12.00;;
74689;SDS011;63221;51.860;-2.188;2023-04-29T04:46:54;20.52;;;10.30;;
74689;SDS011;63221;51.860;-2.188;2023-04-29T04:49:19;19.80;;;11.33;;
74689;SDS011;63221;51.860;-2.188;2023-04-29T04:51:45;20.57;;;10.57;;
74689;SDS011;63221;51.860;-2.188;2023-04-29T04:54:10;22.17;;;11.23;;
74689;SDS011;63221;51.860;-2.188;2023-04-29T04:56:36;22.50;;;10.50;;
74689;SDS011;63221;51.860;-2.188;2023-04-29T04:59:02;24.95;;;11.85;;
74689;SDS011;63221;51.860;-2.188;2023-04-29T05:01:28;24.70;;;11.30;;
74689;SDS011;63221;51.860;-2.188;2023-04-29T05:03:53;29.95;;;12.32;;
74689;SDS011;63221;51.860;-2.188;2023-04-29T05:06:18;22.13;;;11.13;;
74689;SDS011;63221;51.860;-2.188;2023-04-29T05:08:44;22.30;;;11.43;;
74689;SDS011;63221;51.860;-2.188;2023-04-29T05:11:18;21.85;;;10.77;;
74689;SDS011;63221;51.860;-2.188;2023-04-29T05:13:45;22.10;;;12.00;;
74689;SDS011;63221;51.860;-2.188;2023-04-29T05:16:10;24.52;;;11.57;;
74689;SDS011;63221;51.860;-2.188;2023-04-29T05:18:36;23.17;;;11.87;;
74689;SDS011;63221;51.860;-2.188;2023-04-29T05:21:01;24.83;;;13.40;;
74689;SDS011;63221;51.860;-2.188;2023-04-29T05:23:27;28.63;;;12.32;;
74689;SDS011;63221;51.860;-2.188;2023-04-29T05:25:52;24.20;;;12.47;;
74689;SDS011;63221;51.860;-2.188;2023-04-29T05:28:18;23.03;;;12.13;;
74689;SDS011;63221;51.860;-2.188;2023-04-29T05:30:43;26.48;;;12.30;;
74689;SDS011;63221;51.860;-2.188;2023-04-29T05:33:09;25.50;;;12.50;;
74689;SDS011;63221;51.860;-2.188;2023-04-29T05:35:35;26.45;;;12.95;;
74689;SDS011;63221;51.860;-2.188;2023-04-29T05:38:01;23.75;;;11.60;;
74689;SDS011;63221;51.860;-2.188;2023-04-29T05:40:26;30.03;;;13.30;;
74689;SDS011;63221;51.860;-2.188;2023-04-29T05:42:52;27.93;;;14.77;;
74689;SDS011;63221;51.860;-2.188;2023-04-29T05:45:17;26.03;;;13.37;;
74689;SDS011;63221;51.860;-2.188;2023-04-29T05:47:43;25.08;;;12.48;;
74689;SDS011;63221;51.860;-2.188;2023-04-29T05:50:08;27.30;;;13.23;;
74689;SDS011;63221;51.860;-2.188;2023-04-29T05:52:34;28.13;;;15.03;;
74689;SDS011;63221;51.860;-2.188;2023-04-29T05:54:59;31.65;;;15.80;;
74689;SDS011;63221;51.860;-2.188;2023-04-29T05:57:24;25.83;;;12.77;;
74689;SDS011;63221;51.860;-2.188;2023-04-29T05:59:50;26.97;;;14.73;;
74689;SDS011;63221;51.860;-2.188;2023-04-29T06:02:15;27.23;;;14.00;;
74689;SDS011;63221;51.860;-2.188;2023-04-29T06:04:41;28.50;;;15.33;;
74689;SDS011;63221;51.860;-2.188;2023-04-29T06:07:06;30.83;;;14.60;;
74689;SDS011;63221;51.860;-2.188;2023-04-29T06:09:34;28.43;;;14.63;;
74689;SDS011;63221;51.860;-2.188;2023-04-29T06:12:00;27.52;;;13.70;;
74689;SDS011;63221;51.860;-2.188;2023-04-29T06:14:25;29.90;;;14.25;;
74689;SDS011;63221;51.860;-2.188;2023-04-29T06:16:51;29.43;;;15.67;;
74689;SDS011;63221;51.860;-2.188;2023-04-29T06:19:17;31.27;;;16.38;;
74689;SDS011;63221;51.860;-2.188;2023-04-29T06:21:43;30.57;;;16.10;;
74689;SDS011;63221;51.860;-2.188;2023-04-29T06:24:08;31.00;;;15.43;;
74689;SDS011;63221;51.860;-2.188;2023-04-29T06:26:34;32.92;;;15.13;;
74689;SDS011;63221;51.860;-2.188;2023-04-29T06:28:59;32.87;;;15.83;;
74689;SDS011;63221;51.860;-2.188;2023-04-29T06:31:25;29.13;;;14.70;;
74689;SDS011;63221;51.860;-2.188;2023-04-29T06:33:50;31.80;;;15.27;;
74689;SDS011;63221;51.860;-2.188;2023-04-29T06:36:15;27.53;;;14.80;;
74689;SDS011;63221;51.860;-2.188;2023-04-29T06:38:41;29.83;;;14.75;;
74689;SDS011;63221;51.860;-2.188;2023-04-29T06:41:06;29.00;;;15.67;;
74689;SDS011;63221;51.860;-2.188;2023-04-29T06:43:31;32.40;;;14.50;;
74689;SDS011;63221;51.860;-2.188;2023-04-29T06:45:57;30.17;;;15.37;;
74689;SDS011;63221;51.860;-2.188;2023-04-29T06:48:23;28.02;;;14.63;;
74689;SDS011;63221;51.860;-2.188;2023-04-29T06:50:52;27.83;;;14.60;;
74689;SDS011;63221;51.860;-2.188;2023-04-29T06:53:18;22.58;;;12.18;;
74689;SDS011;63221;51.860;-2.188;2023-04-29T06:55:44;28.33;;;14.47;;
74689;SDS011;63221;51.860;-2.188;2023-04-29T06:58:11;24.60;;;14.55;;
74689;SDS011;63221;51.860;-2.188;2023-04-29T07:00:37;31.20;;;15.15;;
74689;SDS011;63221;51.860;-2.188;2023-04-29T07:03:02;25.57;;;13.90;;
74689;SDS011;63221;51.860;-2.188;2023-04-29T07:05:28;29.05;;;14.50;;
74689;SDS011;63221;51.860;-2.188;2023-04-29T07:07:53;23.20;;;12.80;;
74689;SDS011;63221;51.860;-2.188;2023-04-29T07:10:19;21.90;;;13.50;;
74689;SDS011;63221;51.860;-2.188;2023-04-29T07:12:44;23.87;;;13.83;;
74689;SDS011;63221;51.860;-2.188;2023-04-29T07:15:09;20.87;;;11.17;;
74689;SDS011;63221;51.860;-2.188;2023-04-29T07:17:35;23.73;;;12.73;;
74689;SDS011;63221;51.860;-2.188;2023-04-29T07:20:00;21.50;;;12.33;;
74689;SDS011;63221;51.860;-2.188;2023-04-29T07:22:26;22.47;;;12.20;;
74689;SDS011;63221;51.860;-2.188;2023-04-29T07:24:52;20.70;;;12.13;;
74689;SDS011;63221;51.860;-2.188;2023-04-29T07:27:18;21.08;;;11.00;;
74689;SDS011;63221;51.860;-2.188;2023-04-29T07:29:44;21.23;;;12.77;;
74689;SDS011;63221;51.860;-2.188;2023-04-29T07:32:09;19.27;;;11.57;;
74689;SDS011;63221;51.860;-2.188;2023-04-29T07:34:35;20.60;;;11.43;;
74689;SDS011;63221;51.860;-2.188;2023-04-29T07:37:00;18.05;;;9.73;;
74689;SDS011;63221;51.860;-2.188;2023-04-29T07:39:26;18.47;;;10.73;;
74689;SDS011;63221;51.860;-2.188;2023-04-29T07:41:52;23.88;;;10.77;;
74689;SDS011;63221;51.860;-2.188;2023-04-29T07:44:18;17.67;;;10.67;;
74689;SDS011;63221;51.860;-2.188;2023-04-29T07:46:43;22.00;;;10.90;;
74689;SDS011;63221;51.860;-2.188;2023-04-29T07:49:09;19.57;;;11.03;;
74689;SDS011;63221;51.860;-2.188;2023-04-29T07:51:34;19.70;;;11.23;;
74689;SDS011;63221;51.860;-2.188;2023-04-29T07:53:59;20.08;;;12.38;;
74689;SDS011;63221;51.860;-2.188;2023-04-29T07:56:25;24.83;;;14.10;;
74689;SDS011;63221;51.860;-2.188;2023-04-29T07:58:50;17.23;;;10.47;;
74689;SDS011;63221;51.860;-2.188;2023-04-29T08:01:16;19.07;;;11.47;;
74689;SDS011;63221;51.860;-2.188;2023-04-29T08:03:41;20.90;;;10.97;;
74689;SDS011;63221;51.860;-2.188;2023-04-29T08:06:07;17.90;;;10.07;;
74689;SDS011;63221;51.860;-2.188;2023-04-29T08:08:32;18.63;;;10.07;;
74689;SDS011;63221;51.860;-2.188;2023-04-29T08:10:58;24.90;;;12.03;;
74689;SDS011;63221;51.860;-2.188;2023-04-29T08:13:23;18.05;;;10.07;;
74689;SDS011;63221;51.860;-2.188;2023-04-29T08:15:49;21.60;;;12.23;;
74689;SDS011;63221;51.860;-2.188;2023-04-29T08:18:15;19.88;;;11.02;;
74689;SDS011;63221;51.860;-2.188;2023-04-29T08:20:40;17.53;;;11.03;;
74689;SDS011;63221;51.860;-2.188;2023-04-29T08:23:06;18.43;;;11.07;;
74689;SDS011;63221;51.860;-2.188;2023-04-29T08:25:31;20.90;;;10.50;;
74689;SDS011;63221;51.860;-2.188;2023-04-29T08:27:57;26.60;;;13.00;;
74689;SDS011;63221;51.860;-2.188;2023-04-29T08:30:22;24.13;;;11.90;;
74689;SDS011;63221;51.860;-2.188;2023-04-29T08:32:48;21.27;;;11.38;;
74689;SDS011;63221;51.860;-2.188;2023-04-29T08:35:14;22.95;;;12.15;;
74689;SDS011;63221;51.860;-2.188;2023-04-29T08:37:40;23.47;;;11.87;;
74689;SDS011;63221;51.860;-2.188;2023-04-29T08:40:05;25.07;;;13.53;;
74689;SDS011;63221;51.860;-2.188;2023-04-29T08:42:33;26.40;;;13.82;;
74689;SDS011;63221;51.860;-2.188;2023-04-29T08:45:00;22.95;;;12.50;;
74689;SDS011;63221;51.860;-2.188;2023-04-29T08:47:29;23.70;;;12.88;;
74689;SDS011;63221;51.860;-2.188;2023-04-29T08:49:56;23.50;;;13.82;;
74689;SDS011;63221;51.860;-2.188;2023-04-29T08:52:28;25.77;;;12.93;;
74689;SDS011;63221;51.860;-2.188;2023-04-29T08:54:57;24.38;;;13.55;;
74689;SDS011;63221;51.860;-2.188;2023-04-29T08:57:24;28.17;;;15.13;;
74689;SDS011;63221;51.860;-2.188;2023-04-29T08:59:50;22.60;;;13.13;;
74689;SDS011;63221;51.860;-2.188;2023-04-29T09:02:16;23.20;;;13.83;;
74689;SDS011;63221;51.860;-2.188;2023-04-29T09:04:46;22.02;;;13.10;;
74689;SDS011;63221;51.860;-2.188;2023-04-29T09:07:33;22.73;;;12.85;;
74689;SDS011;63221;51.860;-2.188;2023-04-29T09:09:59;25.17;;;14.20;;
74689;SDS011;63221;51.860;-2.188;2023-04-29T09:12:26;24.67;;;12.63;;
74689;SDS011;63221;51.860;-2.188;2023-04-29T09:14:51;23.33;;;12.05;;
74689;SDS011;63221;51.860;-2.188;2023-04-29T09:17:17;24.40;;;12.90;;
74689;SDS011;63221;51.860;-2.188;2023-04-29T09:19:43;22.70;;;12.80;;
74689;SDS011;63221;51.860;-2.188;2023-04-29T09:22:08;18.20;;;10.60;;
74689;SDS011;63221;51.860;-2.188;2023-04-29T09:24:35;20.95;;;11.73;;
74689;SDS011;63221;51.860;-2.188;2023-04-29T09:27:01;19.63;;;11.60;;
74689;SDS011;63221;51.860;-2.188;2023-04-29T09:29:28;20.88;;;11.88;;
74689;SDS011;63221;51.860;-2.188;2023-04-29T09:31:54;20.63;;;12.00;;
74689;SDS011;63221;51.860;-2.188;2023-04-29T09:36:59;19.48;;;11.68;;
74689;SDS011;63221;51.860;-2.188;2023-04-29T09:39:25;17.77;;;9.90;;
74689;SDS011;63221;51.860;-2.188;2023-04-29T09:44:16;21.27;;;11.00;;
74689;SDS011;63221;51.860;-2.188;2023-04-29T09:46:41;20.98;;;10.98;;
74689;SDS011;63221;51.860;-2.188;2023-04-29T09:52:31;21.48;;;11.52;;
74689;SDS011;63221;51.860;-2.188;2023-04-29T09:54:38;20.93;;;10.07;;
74689;SDS011;63221;51.860;-2.188;2023-04-29T09:57:05;19.48;;;10.15;;
74689;SDS011;63221;51.860;-2.188;2023-04-29T09:59:33;15.57;;;9.32;;
74689;SDS011;63221;51.860;-2.188;2023-04-29T10:02:00;19.23;;;10.27;;
74689;SDS011;63221;51.860;-2.188;2023-04-29T10:04:27;13.77;;;8.40;;
74689;SDS011;63221;51.860;-2.188;2023-04-29T10:06:54;15.80;;;9.00;;
74689;SDS011;63221;51.860;-2.188;2023-04-29T10:09:20;17.42;;;9.55;;
74689;SDS011;63221;51.860;-2.188;2023-04-29T10:11:47;14.38;;;8.75;;
74689;SDS011;63221;51.860;-2.188;2023-04-29T10:14:15;15.80;;;9.35;;
74689;SDS011;63221;51.860;-2.188;2023-04-29T10:16:48;15.60;;;8.97;;
74689;SDS011;63221;51.860;-2.188;2023-04-29T10:19:25;15.13;;;9.57;;
74689;SDS011;63221;51.860;-2.188;2023-04-29T10:21:52;14.98;;;8.82;;
74689;SDS011;63221;51.860;-2.188;2023-04-29T10:24:19;18.55;;;11.25;;
74689;SDS011;63221;51.860;-2.188;2023-04-29T10:26:46;16.17;;;10.68;;
74689;SDS011;63221;51.860;-2.188;2023-04-29T10:29:14;18.73;;;10.13;;
74689;SDS011;63221;51.860;-2.188;2023-04-29T10:31:40;18.00;;;10.00;;
74689;SDS011;63221;51.860;-2.188;2023-04-29T10:34:08;18.73;;;11.27;;
74689;SDS011;63221;51.860;-2.188;2023-04-29T10:36:33;20.17;;;10.90;;
74689;SDS011;63221;51.860;-2.188;2023-04-29T10:38:59;12.77;;;8.33;;
74689;SDS011;63221;51.860;-2.188;2023-04-29T10:41:36;14.95;;;8.75;;
74689;SDS011;63221;51.860;-2.188;2023-04-29T10:44:03;13.13;;;7.88;;
74689;SDS011;63221;51.860;-2.188;2023-04-29T10:46:28;12.77;;;7.50;;
74689;SDS011;63221;51.860;-2.188;2023-04-29T10:49:01;10.10;;;5.83;;
74689;SDS011;63221;51.860;-2.188;2023-04-29T10:54:11;12.25;;;7.57;;
74689;SDS011;63221;51.860;-2.188;2023-04-29T10:56:39;11.30;;;7.13;;
74689;SDS011;63221;51.860;-2.188;2023-04-29T10:59:17;12.25;;;6.80;;
74689;SDS011;63221;51.860;-2.188;2023-04-29T11:01:46;13.70;;;7.20;;
74689;SDS011;63221;51.860;-2.188;2023-04-29T11:04:15;10.48;;;6.13;;
74689;SDS011;63221;51.860;-2.188;2023-04-29T11:06:46;12.77;;;7.18;;
74689;SDS011;63221;51.860;-2.188;2023-04-29T11:09:19;12.38;;;6.68;;
74689;SDS011;63221;51.860;-2.188;2023-04-29T11:14:35;12.17;;;7.13;;
74689;SDS011;63221;51.860;-2.188;2023-04-29T11:17:11;13.20;;;7.70;;
74689;SDS011;63221;51.860;-2.188;2023-04-29T11:19:40;11.43;;;7.05;;
74689;SDS011;63221;51.860;-2.188;2023-04-29T11:22:10;9.95;;;5.68;;
74689;SDS011;63221;51.860;-2.188;2023-04-29T11:24:36;8.88;;;4.85;;
74689;SDS011;63221;51.860;-2.188;2023-04-29T11:27:01;10.77;;;5.37;;
74689;SDS011;63221;51.860;-2.188;2023-04-29T11:29:30;12.77;;;7.30;;
74689;SDS011;63221;51.860;-2.188;2023-04-29T11:31:57;12.23;;;6.20;;
74689;SDS011;63221;51.860;-2.188;2023-04-29T11:34:23;10.18;;;6.25;;
74689;SDS011;63221;51.860;-2.188;2023-04-29T11:36:49;7.27;;;4.80;;
74689;SDS011;63221;51.860;-2.188;2023-04-29T11:39:15;9.43;;;6.28;;
74689;SDS011;63221;51.860;-2.188;2023-04-29T11:41:41;11.37;;;7.70;;
74689;SDS011;63221;51.860;-2.188;2023-04-29T11:44:06;10.32;;;6.75;;
74689;SDS011;63221;51.860;-2.188;2023-04-29T11:46:33;10.38;;;6.13;;
74689;SDS011;63221;51.860;-2.188;2023-04-29T11:48:58;11.47;;;7.47;;
74689;SDS011;63221;51.860;-2.188;2023-04-29T11:51:24;10.82;;;6.68;;
74689;SDS011;63221;51.860;-2.188;2023-04-29T11:53:51;9.43;;;5.40;;
74689;SDS011;63221;51.860;-2.188;2023-04-29T11:56:16;9.30;;;6.00;;
74689;SDS011;63221;51.860;-2.188;2023-04-29T11:58:46;8.98;;;5.65;;
74689;SDS011;63221;51.860;-2.188;2023-04-29T12:01:12;9.60;;;5.17;;
74689;SDS011;63221;51.860;-2.188;2023-04-29T12:03:37;6.93;;;5.10;;
74689;SDS011;63221;51.860;-2.188;2023-04-29T12:06:03;8.60;;;5.75;;
74689;SDS011;63221;51.860;-2.188;2023-04-29T12:08:29;8.07;;;5.73;;
74689;SDS011;63221;51.860;-2.188;2023-04-29T12:10:55;16.00;;;5.70;;
74689;SDS011;63221;51.860;-2.188;2023-04-29T12:13:22;9.07;;;5.45;;
74689;SDS011;63221;51.860;-2.188;2023-04-29T12:15:49;8.27;;;5.17;;
74689;SDS011;63221;51.860;-2.188;2023-04-29T12:18:19;9.25;;;5.43;;
74689;SDS011;63221;51.860;-2.188;2023-04-29T12:20:47;7.45;;;4.68;;
74689;SDS011;63221;51.860;-2.188;2023-04-29T12:23:13;7.25;;;4.57;;
74689;SDS011;63221;51.860;-2.188;2023-04-29T12:25:40;10.10;;;6.63;;
74689;SDS011;63221;51.860;-2.188;2023-04-29T12:28:13;8.37;;;4.77;;
74689;SDS011;63221;51.860;-2.188;2023-04-29T12:30:40;7.97;;;5.70;;
74689;SDS011;63221;51.860;-2.188;2023-04-29T12:33:08;8.13;;;6.10;;
74689;SDS011;63221;51.860;-2.188;2023-04-29T12:35:34;8.60;;;4.75;;
74689;SDS011;63221;51.860;-2.188;2023-04-29T12:38:01;8.45;;;4.97;;
74689;SDS011;63221;51.860;-2.188;2023-04-29T12:40:26;10.10;;;5.13;;
74689;SDS011;63221;51.860;-2.188;2023-04-29T12:42:52;8.45;;;5.60;;
74689;SDS011;63221;51.860;-2.188;2023-04-29T12:45:51;7.05;;;4.60;;
74689;SDS011;63221;51.860;-2.188;2023-04-29T12:48:10;5.73;;;3.77;;
74689;SDS011;63221;51.860;-2.188;2023-04-29T12:50:37;6.75;;;5.18;;
74689;SDS011;63221;51.860;-2.188;2023-04-29T12:53:06;7.35;;;4.93;;
74689;SDS011;63221;51.860;-2.188;2023-04-29T12:55:33;10.57;;;5.68;;
74689;SDS011;63221;51.860;-2.188;2023-04-29T12:57:59;7.75;;;5.60;;
74689;SDS011;63221;51.860;-2.188;2023-04-29T13:00:25;7.50;;;4.53;;
74689;SDS011;63221;51.860;-2.188;2023-04-29T13:02:50;8.48;;;5.40;;
74689;SDS011;63221;51.860;-2.188;2023-04-29T13:05:16;8.20;;;4.93;;
74689;SDS011;63221;51.860;-2.188;2023-04-29T13:07:41;8.20;;;5.20;;
74689;SDS011;63221;51.860;-2.188;2023-04-29T13:10:07;8.03;;;5.20;;
74689;SDS011;63221;51.860;-2.188;2023-04-29T13:12:33;8.23;;;5.05;;
74689;SDS011;63221;51.860;-2.188;2023-04-29T13:14:58;8.50;;;5.47;;
74689;SDS011;63221;51.860;-2.188;2023-04-29T13:17:24;9.63;;;6.07;;
74689;SDS011;63221;51.860;-2.188;2023-04-29T13:19:49;9.67;;;6.13;;
74689;SDS011;63221;51.860;-2.188;2023-04-29T13:22:15;12.05;;;6.75;;
74689;SDS011;63221;51.860;-2.188;2023-04-29T13:24:40;10.63;;;6.40;;
74689;SDS011;63221;51.860;-2.188;2023-04-29T13:27:06;10.00;;;6.10;;
74689;SDS011;63221;51.860;-2.188;2023-04-29T13:29:31;8.73;;;5.23;;
74689;SDS011;63221;51.860;-2.188;2023-04-29T13:31:56;6.88;;;4.70;;
74689;SDS011;63221;51.860;-2.188;2023-04-29T13:34:22;9.13;;;6.47;;
74689;SDS011;63221;51.860;-2.188;2023-04-29T13:36:47;6.00;;;4.40;;
74689;SDS011;63221;51.860;-2.188;2023-04-29T13:39:13;8.27;;;5.20;;
74689;SDS011;63221;51.860;-2.188;2023-04-29T13:41:38;9.00;;;6.20;;
74689;SDS011;63221;51.860;-2.188;2023-04-29T13:44:03;10.70;;;6.05;;
74689;SDS011;63221;51.860;-2.188;2023-04-29T13:46:29;9.37;;;6.60;;
74689;SDS011;63221;51.860;-2.188;2023-04-29T13:48:56;9.25;;;6.43;;
74689;SDS011;63221;51.860;-2.188;2023-04-29T13:51:22;9.23;;;5.93;;
74689;SDS011;63221;51.860;-2.188;2023-04-29T13:53:47;9.10;;;6.80;;
74689;SDS011;63221;51.860;-2.188;2023-04-29T13:56:12;8.13;;;5.50;;
74689;SDS011;63221;51.860;-2.188;2023-04-29T13:58:38;8.10;;;5.60;;
74689;SDS011;63221;51.860;-2.188;2023-04-29T14:01:05;7.25;;;4.57;;
74689;SDS011;63221;51.860;-2.188;2023-04-29T14:03:31;9.03;;;4.60;;
74689;SDS011;63221;51.860;-2.188;2023-04-29T14:05:56;7.47;;;5.43;;
74689;SDS011;63221;51.860;-2.188;2023-04-29T14:08:22;7.93;;;4.63;;
74689;SDS011;63221;51.860;-2.188;2023-04-29T14:10:47;8.77;;;5.43;;
74689;SDS011;63221;51.860;-2.188;2023-04-29T14:13:13;5.97;;;4.83;;
74689;SDS011;63221;51.860;-2.188;2023-04-29T14:15:38;5.47;;;4.47;;
74689;SDS011;63221;51.860;-2.188;2023-04-29T14:18:03;6.93;;;4.95;;
74689;SDS011;63221;51.860;-2.188;2023-04-29T14:20:31;7.50;;;5.27;;
74689;SDS011;63221;51.860;-2.188;2023-04-29T14:22:57;7.57;;;5.75;;
74689;SDS011;63221;51.860;-2.188;2023-04-29T14:25:22;8.43;;;5.67;;
74689;SDS011;63221;51.860;-2.188;2023-04-29T14:27:48;7.10;;;5.00;;
74689;SDS011;63221;51.860;-2.188;2023-04-29T14:30:13;10.23;;;6.78;;
74689;SDS011;63221;51.860;-2.188;2023-04-29T14:32:39;7.77;;;6.30;;
74689;SDS011;63221;51.860;-2.188;2023-04-29T14:35:04;6.40;;;4.57;;
74689;SDS011;63221;51.860;-2.188;2023-04-29T14:37:30;9.00;;;5.32;;